Time;durP1;ratioP1;P1;durP2;ratioP2;P2;SDS_P1;SDS_P2;PMS_P1;PMS_P2;Temp;Humidity;BMP_temperature;BMP_pressure;BME280_temperature;BME280_humidity;BME280_pressure;Samples;Min_cycle;Max_cycle;Signal;HPM_P1;HPM_P2
2022/05/19 00:00:16;;;;;;;1115.35;999.90;;;;;;;20.76;39.71;101792.19;686708;28;946;-68
2022/05/19 00:01:01;;;;;;;1117.95;999.90;;;;;;;20.75;39.61;101792.41;684457;28;46671;-67
2022/05/19 00:01:20;;;;;;;1113.88;999.90;;;;;;;20.72;39.76;101787.38;683088;28;95467;-68
2022/05/19 00:01:41;;;;;;;1117.40;999.90;;;;;;;20.71;39.70;101781.03;684360;28;15508;-68
2022/05/19 00:02:06;;;;;;;1116.03;999.90;;;;;;;20.72;39.63;101782.75;685439;28;22304;-68
2022/05/19 00:02:27;;;;;;;1115.25;999.90;;;;;;;20.72;39.67;101788.22;683302;28;81127;-68
2022/05/19 00:02:49;;;;;;;1126.45;999.90;;;;;;;20.73;39.81;101784.41;684585;28;22393;-67
2022/05/19 00:03:12;;;;;;;1140.43;999.90;;;;;;;20.73;39.85;101784.41;683547;28;67477;-68
2022/05/19 00:03:34;;;;;;;1137.57;999.90;;;;;;;20.74;40.02;101788.00;684898;28;22753;-69
2022/05/19 00:03:56;;;;;;;1132.47;999.90;;;;;;;20.70;39.58;101779.34;683831;28;69324;-68
2022/05/19 00:04:18;;;;;;;1134.18;999.90;;;;;;;20.71;39.68;101783.78;684070;28;45120;-68
2022/05/19 00:04:39;;;;;;;1133.72;999.90;;;;;;;20.71;39.62;101783.78;685050;28;22584;-68
2022/05/19 00:05:01;;;;;;;1135.00;999.90;;;;;;;20.72;39.71;101785.50;684594;28;23425;-68
2022/05/19 00:05:22;;;;;;;1135.20;999.90;;;;;;;20.73;39.51;101789.91;685521;28;12960;-68
2022/05/19 00:05:43;;;;;;;1136.93;999.90;;;;;;;20.74;39.59;101786.09;685457;28;23773;-68
2022/05/19 00:06:07;;;;;;;1137.22;999.90;;;;;;;20.72;39.34;101784.63;683945;28;45137;-68
2022/05/19 00:06:29;;;;;;;1133.13;999.90;;;;;;;20.74;39.64;101785.25;682646;28;68413;-68
2022/05/19 00:06:58;;;;;;;1133.20;999.90;;;;;;;20.75;39.58;101789.69;684142;28;58682;-68
2022/05/19 00:07:19;;;;;;;1132.20;999.90;;;;;;;20.74;39.51;101782.53;686466;28;1462;-68
2022/05/19 00:07:42;;;;;;;1126.90;999.90;;;;;;;20.72;39.71;101785.50;686192;28;1918;-68
2022/05/19 00:08:04;;;;;;;1127.22;999.90;;;;;;;20.72;39.64;101785.50;685583;28;24849;-68
2022/05/19 00:08:25;;;;;;;1132.78;999.90;;;;;;;20.70;39.70;101776.59;684907;28;44383;-68
2022/05/19 00:08:46;;;;;;;1129.70;999.90;;;;;;;20.72;39.57;101790.13;685552;28;20783;-68
2022/05/19 00:09:09;;;;;;;1116.85;999.90;;;;;;;20.70;39.80;101784.84;685369;28;22409;-68
2022/05/19 00:09:30;;;;;;;1113.63;999.90;;;;;;;20.67;39.74;101782.53;682840;28;69375;-68
2022/05/19 00:09:52;;;;;;;1107.32;999.90;;;;;;;20.66;39.91;101787.19;684919;28;23482;-68
2022/05/19 00:10:13;;;;;;;1108.57;999.90;;;;;;;20.67;39.87;101779.78;683973;28;46382;-67
2022/05/19 00:10:35;;;;;;;1114.65;999.90;;;;;;;20.68;39.90;101785.06;685575;28;22421;-68
2022/05/19 00:11:00;;;;;;;1121.35;999.90;;;;;;;20.67;39.91;101779.78;682342;28;93040;-68
2022/05/19 00:11:26;;;;;;;1125.15;999.90;;;;;;;20.68;40.23;101784.22;683667;28;68317;-68
2022/05/19 00:11:49;;;;;;;1128.07;999.90;;;;;;;20.68;39.81;101786.97;680545;28;158459;-68
2022/05/19 00:12:14;;;;;;;1113.32;999.90;;;;;;;20.65;39.72;101782.75;685022;28;46298;-68
2022/05/19 00:12:35;;;;;;;1114.35;999.90;;;;;;;20.68;39.90;101785.06;682201;28;114378;-68
2022/05/19 00:12:56;;;;;;;1117.53;999.90;;;;;;;20.68;39.68;101781.47;684789;28;44386;-68
2022/05/19 00:13:17;;;;;;;1119.93;999.90;;;;;;;20.70;39.83;101782.97;685735;28;22381;-68
2022/05/19 00:13:41;;;;;;;1126.70;999.90;;;;;;;20.69;39.72;101783.19;685416;28;21540;-67
2022/05/19 00:14:02;;;;;;;1126.80;999.90;;;;;;;20.68;39.88;101776.81;683521;28;92236;-67
2022/05/19 00:14:24;;;;;;;1120.32;999.90;;;;;;;20.69;39.70;101783.19;684662;28;21516;-68
2022/05/19 00:14:46;;;;;;;1126.78;999.90;;;;;;;20.69;39.73;101781.28;685679;28;22415;-68
2022/05/19 00:15:08;;;;;;;1135.80;999.90;;;;;;;20.70;39.56;101782.09;683596;28;67487;-68
2022/05/19 00:15:30;;;;;;;1131.03;999.90;;;;;;;20.70;39.63;101780.22;684195;28;68100;-69
2022/05/19 00:15:52;;;;;;;1129.55;999.90;;;;;;;20.67;39.82;101783.41;684674;28;47394;-68
2022/05/19 00:16:13;;;;;;;1126.63;999.90;;;;;;;20.67;39.91;101783.41;685006;28;22478;-68
2022/05/19 00:16:35;;;;;;;1131.07;999.90;;;;;;;20.69;39.73;101786.75;684837;28;21283;-68
2022/05/19 00:16:57;;;;;;;1120.80;999.90;;;;;;;20.70;39.88;101782.09;684906;28;43653;-68
2022/05/19 00:17:18;;;;;;;1114.85;999.90;;;;;;;20.69;39.83;101780.44;683970;28;70246;-67
2022/05/19 00:17:40;;;;;;;1115.40;999.90;;;;;;;20.69;39.63;101777.69;685098;28;22404;-68
2022/05/19 00:18:02;;;;;;;1115.53;999.90;;;;;;;20.69;39.73;101780.44;686251;28;994;-68
2022/05/19 00:18:23;;;;;;;1117.43;999.90;;;;;;;20.69;39.75;101781.28;684879;28;44388;-68
2022/05/19 00:18:45;;;;;;;1116.47;999.90;;;;;;;20.68;39.89;101776.81;684773;28;44181;-68
2022/05/19 00:19:06;;;;;;;1119.82;999.90;;;;;;;20.69;39.89;101777.69;685957;28;22408;-68
2022/05/19 00:19:28;;;;;;;1126.47;999.90;;;;;;;20.69;39.62;101780.44;685422;28;24203;-68
2022/05/19 00:19:49;;;;;;;1136.90;999.90;;;;;;;20.64;39.68;101777.44;684806;28;47233;-68
2022/05/19 00:20:11;;;;;;;1139.78;999.90;;;;;;;20.67;39.74;101780.66;685364;28;23744;-68
2022/05/19 00:20:32;;;;;;;1137.68;999.90;;;;;;;20.66;39.89;101776.22;685766;28;22399;-68
2022/05/19 00:20:53;;;;;;;1135.10;999.90;;;;;;;20.66;39.95;101783.63;685312;28;21344;-68
2022/05/19 00:21:15;;;;;;;1136.13;999.90;;;;;;;20.67;39.81;101779.78;685648;28;22377;-69
2022/05/19 00:21:37;;;;;;;1136.55;999.90;;;;;;;20.65;39.81;101776.44;684034;28;45001;-68
2022/05/19 00:21:58;;;;;;;1134.38;999.90;;;;;;;20.63;40.02;101782.09;684003;28;45224;-69
2022/05/19 00:22:21;;;;;;;1134.72;999.90;;;;;;;20.61;40.07;101776.00;683543;28;67347;-68
2022/05/19 00:22:43;;;;;;;1135.63;999.90;;;;;;;20.63;40.05;101781.28;685012;28;22401;-68
2022/05/19 00:23:05;;;;;;;1135.65;999.90;;;;;;;20.61;40.26;101777.88;684404;28;47425;-68
2022/05/19 00:23:26;;;;;;;1132.93;999.90;;;;;;;20.61;40.27;101778.75;684540;28;46393;-68
2022/05/19 00:23:47;;;;;;;1133.25;999.90;;;;;;;20.61;40.09;101778.75;685222;28;22388;-68
2022/05/19 00:24:10;;;;;;;1131.78;999.90;;;;;;;20.62;40.19;101776.84;685574;28;21528;-69
2022/05/19 00:24:31;;;;;;;1132.80;999.90;;;;;;;20.60;40.13;101776.22;683331;28;69426;-68
2022/05/19 00:24:52;;;;;;;1131.57;999.90;;;;;;;20.58;40.00;101778.31;685430;28;23412;-68
2022/05/19 00:25:14;;;;;;;1129.55;999.90;;;;;;;20.55;40.08;101773.28;685491;28;22805;-68
2022/05/19 00:25:35;;;;;;;1128.25;999.90;;;;;;;20.55;40.17;101778.75;685586;28;21372;-68
2022/05/19 00:25:57;;;;;;;1119.50;999.90;;;;;;;20.52;40.04;101778.16;685559;28;21295;-67
2022/05/19 00:26:18;;;;;;;1133.82;999.90;;;;;;;20.48;40.25;101765.91;684151;28;45146;-68
2022/05/19 00:26:39;;;;;;;1130.25;999.90;;;;;;;20.50;40.26;101768.44;684147;28;46330;-68
2022/05/19 00:27:01;;;;;;;1125.05;999.90;;;;;;;20.50;40.35;101780.28;685674;28;22370;-68
2022/05/19 00:27:22;;;;;;;1128.57;999.90;;;;;;;20.49;40.43;101778.59;686642;28;41416;-68
2022/05/19 00:27:43;;;;;;;1126.32;999.90;;;;;;;20.49;40.38;101777.75;687772;28;22432;-68
2022/05/19 00:28:05;;;;;;;1124.07;999.90;;;;;;;20.48;40.34;101771.41;688330;28;21062;-68
2022/05/19 00:28:28;;;;;;;1124.90;999.90;;;;;;;20.49;40.46;101781.31;688173;28;1911;-68
2022/05/19 00:28:50;;;;;;;1125.37;999.90;;;;;;;20.49;40.44;101770.34;687332;28;46270;-68
2022/05/19 00:29:11;;;;;;;1125.38;999.90;;;;;;;20.47;40.47;101769.72;685935;28;69209;-68
2022/05/19 00:29:34;;;;;;;1137.15;999.90;;;;;;;20.46;40.32;101769.94;685381;28;21564;-68
2022/05/19 00:29:55;;;;;;;1143.57;999.90;;;;;;;20.49;40.19;101769.50;684379;28;45196;-68
2022/05/19 00:30:16;;;;;;;1132.93;999.90;;;;;;;20.50;40.31;101773.94;685321;28;23468;-68
2022/05/19 00:30:37;;;;;;;1131.85;999.90;;;;;;;20.48;40.26;101778.81;685437;28;22384;-67
2022/05/19 00:30:58;;;;;;;1130.68;999.90;;;;;;;20.45;40.47;101774.56;683731;28;44365;-68
2022/05/19 00:31:20;;;;;;;1129.07;999.90;;;;;;;20.48;40.51;101779.63;685857;28;21558;-67
2022/05/19 00:31:41;;;;;;;1129.65;999.90;;;;;;;20.47;40.56;101772.47;684207;28;44391;-68
2022/05/19 00:32:03;;;;;;;1133.00;999.90;;;;;;;20.45;40.45;101779.22;685995;28;23376;-68
2022/05/19 00:32:24;;;;;;;1137.70;999.90;;;;;;;20.45;40.38;101773.75;685131;28;23523;-68
2022/05/19 00:32:45;;;;;;;1136.72;999.90;;;;;;;20.47;40.49;101772.47;685263;28;24453;-68
2022/05/19 00:33:08;;;;;;;1131.25;999.90;;;;;;;20.47;40.21;101771.63;685172;28;22416;-68
2022/05/19 00:33:30;;;;;;;1133.32;999.90;;;;;;;20.44;40.61;101772.06;683175;28;93035;-67
2022/05/19 00:33:51;;;;;;;1133.30;999.90;;;;;;;20.41;40.39;101770.59;685573;28;23601;-68
2022/05/19 00:34:13;;;;;;;1142.18;999.90;;;;;;;20.44;40.46;101778.41;685824;28;21344;-68
2022/05/19 00:34:36;;;;;;;1134.15;999.90;;;;;;;20.40;40.64;101770.81;683025;28;92376;-67
2022/05/19 00:34:57;;;;;;;1130.28;999.90;;;;;;;20.41;40.60;101778.84;685686;28;22414;-68
2022/05/19 00:35:18;;;;;;;1126.95;999.90;;;;;;;20.42;40.53;101777.75;686322;28;1513;-68
2022/05/19 00:35:41;;;;;;;1129.50;999.90;;;;;;;20.44;40.48;101777.53;685563;28;21314;-68
2022/05/19 00:36:10;;;;;;;1133.82;999.90;;;;;;;20.40;40.44;101771.66;685923;28;1546;-68
2022/05/19 00:36:32;;;;;;;1135.88;999.90;;;;;;;20.40;40.55;101774.41;680802;28;137862;-68
2022/05/19 00:37:00;;;;;;;1128.38;999.90;;;;;;;20.41;40.37;101778.84;682928;28;92241;-68
2022/05/19 00:37:21;;;;;;;1126.10;999.90;;;;;;;20.40;40.46;101782.63;681956;28;130748;-68
2022/05/19 00:37:42;;;;;;;1122.37;999.90;;;;;;;20.40;40.46;101779.06;684496;28;44895;-68
2022/05/19 00:38:03;;;;;;;1120.68;999.90;;;;;;;20.36;40.57;101778.66;685039;28;44350;-68
2022/05/19 00:38:25;;;;;;;1110.68;999.90;;;;;;;20.32;40.50;101771.91;685611;28;20521;-68
2022/05/19 00:38:47;;;;;;;1106.22;999.90;;;;;;;20.32;40.76;101774.66;686208;28;1749;-68
2022/05/19 00:39:10;;;;;;;1105.50;999.90;;;;;;;20.32;40.88;101772.75;684901;28;46165;-68
2022/05/19 00:39:33;;;;;;;1111.57;999.90;;;;;;;20.32;40.55;101780.97;683081;28;69490;-68
2022/05/19 00:39:55;;;;;;;1108.18;999.90;;;;;;;20.33;40.66;101779.09;683465;28;67605;-68
2022/05/19 00:40:18;;;;;;;1103.80;999.90;;;;;;;20.29;40.60;101772.34;685068;28;23512;-68
2022/05/19 00:40:44;;;;;;;1096.45;999.90;;;;;;;20.28;40.58;101776.13;683897;28;67543;-68
2022/05/19 00:41:06;;;;;;;1094.82;999.90;;;;;;;20.26;40.62;101779.09;683635;28;138023;-68
2022/05/19 00:41:29;;;;;;;1092.60;999.90;;;;;;;20.24;40.72;101774.91;685086;28;69492;-68
2022/05/19 00:42:43;;;;;;;1090.20;999.90;;;;;;;20.23;40.62;101775.94;687110;28;44433;-67
2022/05/19 00:42:43;;;;;;;1096.85;999.90;;;;;;;20.23;40.71;101775.94;684035;28;135862;-68
2022/05/19 00:43:05;;;;;;;1103.53;999.90;;;;;;;20.20;41.14;101773.63;681431;28;138004;-68
2022/05/19 00:43:27;;;;;;;1105.07;999.90;;;;;;;20.17;41.13;101775.75;685302;28;22393;-67
2022/05/19 00:43:58;;;;;;;1107.78;999.90;;;;;;;20.21;41.24;101778.91;684573;28;46186;-67
2022/05/19 00:44:20;;;;;;;1118.53;999.90;;;;;;;20.21;41.21;101776.16;680743;28;136141;-68
2022/05/19 00:44:41;;;;;;;1108.85;999.90;;;;;;;20.19;41.32;101778.28;685464;28;22381;-68
2022/05/19 00:45:07;;;;;;;1107.22;999.90;;;;;;;20.18;41.23;101776.59;682336;28;115105;-68
2022/05/19 00:45:35;;;;;;;1107.95;999.90;;;;;;;20.18;41.45;101779.34;686023;28;48735;-68
2022/05/19 00:45:59;;;;;;;1104.97;999.90;;;;;;;20.16;41.21;101779.56;683647;28;137555;-67
2022/05/19 00:46:22;;;;;;;1101.80;999.90;;;;;;;20.16;41.11;101774.06;686391;28;69232;-68
2022/05/19 00:46:48;;;;;;;1105.20;999.90;;;;;;;20.15;41.07;101777.03;685864;28;67462;-68
2022/05/19 00:47:12;;;;;;;1104.80;999.90;;;;;;;20.15;41.15;101771.53;684053;28;138275;-68
2022/05/19 00:47:39;;;;;;;1112.25;999.90;;;;;;;20.12;41.15;101781.03;682249;28;113880;-68
2022/05/19 00:48:06;;;;;;;1114.05;999.90;;;;;;;20.14;41.14;101775.31;681201;28;136310;-68
2022/05/19 00:48:36;;;;;;;1117.80;999.90;;;;;;;20.15;41.20;101771.53;681471;28;136890;-68
2022/05/19 00:49:00;;;;;;;1119.03;999.90;;;;;;;20.15;41.22;101777.84;680683;28;160733;-67
2022/05/19 00:49:24;;;;;;;1129.70;999.90;;;;;;;20.17;41.26;101772.16;682840;28;92274;-68
2022/05/19 00:49:46;;;;;;;1132.60;999.90;;;;;;;20.15;41.23;101780.59;681528;28;113332;-67
2022/05/19 00:50:12;;;;;;;1129.13;999.90;;;;;;;20.16;41.53;101775.97;684204;28;21511;-68
2022/05/19 00:50:45;;;;;;;1117.27;999.90;;;;;;;20.16;41.57;101775.97;681785;28;137749;-69
2022/05/19 00:51:08;;;;;;;1121.65;999.90;;;;;;;20.15;41.63;101775.13;681202;28;137480;-68
2022/05/19 00:51:34;;;;;;;1123.90;999.90;;;;;;;20.16;41.63;101781.47;682837;28;69433;-69
2022/05/19 00:52:00;;;;;;;1129.70;999.90;;;;;;;20.15;41.60;101780.59;681302;28;139250;-68
2022/05/19 00:52:23;;;;;;;1132.05;999.90;;;;;;;20.12;41.70;101772.81;681685;28;135875;-68
2022/05/19 00:52:48;;;;;;;1134.03;999.90;;;;;;;20.11;41.67;101776.63;681170;28;115191;-68
2022/05/19 00:53:13;;;;;;;1129.82;999.90;;;;;;;20.13;41.36;101774.50;683694;28;69277;-68
2022/05/19 00:53:38;;;;;;;1122.28;999.90;;;;;;;20.10;41.51;101774.94;682377;28;115149;-68
2022/05/19 00:53:59;;;;;;;1123.97;999.90;;;;;;;20.08;41.27;101770.72;682235;28;115082;-67
2022/05/19 00:54:23;;;;;;;1125.32;999.90;;;;;;;20.06;41.28;101773.69;685378;28;23401;-68
2022/05/19 00:54:49;;;;;;;1125.90;999.90;;;;;;;20.05;41.22;101774.75;682328;28;90399;-69
2022/05/19 00:55:13;;;;;;;1127.85;999.90;;;;;;;20.06;41.20;101775.56;681302;28;138393;-68
2022/05/19 00:55:38;;;;;;;1124.93;999.90;;;;;;;20.04;41.25;101775.78;683106;28;92319;-68
2022/05/19 00:56:04;;;;;;;1124.07;999.90;;;;;;;20.02;41.44;101777.91;683018;28;90303;-68
2022/05/19 00:56:30;;;;;;;1125.75;999.90;;;;;;;20.02;41.56;101777.91;681286;28;137769;-68
2022/05/19 00:56:55;;;;;;;1127.38;999.90;;;;;;;20.00;41.62;101771.81;680012;28;157673;-68
2022/05/19 00:57:20;;;;;;;1130.45;999.90;;;;;;;20.01;41.66;101778.94;681977;28;115209;-68
2022/05/19 00:57:45;;;;;;;1125.20;999.90;;;;;;;19.99;41.50;101773.69;681571;28;115626;-68
2022/05/19 00:58:11;;;;;;;1124.70;999.90;;;;;;;19.95;41.66;101777.94;682709;28;100673;-67
2022/05/19 00:58:35;;;;;;;1121.03;999.90;;;;;;;19.96;41.84;101774.13;681368;28;138240;-67
2022/05/19 00:59:03;;;;;;;1118.50;999.90;;;;;;;19.95;41.76;101774.31;682002;28;114466;-68
2022/05/19 00:59:26;;;;;;;1120.22;999.90;;;;;;;19.94;41.81;101778.97;680650;28;137901;-68
2022/05/19 00:59:50;;;;;;;1115.88;999.90;;;;;;;19.92;42.07;101769.28;681939;28;92603;-68
2022/05/19 01:00:14;;;;;;;1106.35;999.90;;;;;;;19.93;42.03;101776.44;682753;28;69518;-68
2022/05/19 01:00:36;;;;;;;1116.78;999.90;;;;;;;19.89;42.13;101770.56;681649;28;113503;-67
2022/05/19 01:00:58;;;;;;;1111.45;999.90;;;;;;;19.90;42.15;101772.22;686218;28;1632;-67
2022/05/19 01:01:19;;;;;;;1109.15;999.90;;;;;;;19.90;42.05;101774.97;683349;28;69237;-68
2022/05/19 01:01:42;;;;;;;1112.78;999.90;;;;;;;19.88;42.09;101774.34;684390;28;23212;-68
2022/05/19 01:02:05;;;;;;;1116.38;999.90;;;;;;;19.86;42.10;101764.66;683908;28;67485;-68
2022/05/19 01:02:29;;;;;;;1119.32;999.90;;;;;;;19.84;42.00;101767.59;684719;28;46820;-68
2022/05/19 01:02:52;;;;;;;1116.53;999.90;;;;;;;19.84;42.14;101778.56;681757;28;113558;-68
2022/05/19 01:03:14;;;;;;;1120.30;999.90;;;;;;;19.81;42.43;101768.03;684636;28;47158;-68
2022/05/19 01:03:41;;;;;;;1108.68;999.90;;;;;;;19.84;42.24;101772.25;683888;28;70547;-68
2022/05/19 01:04:05;;;;;;;1110.03;999.90;;;;;;;19.83;42.18;101773.28;680510;28;160707;-67
2022/05/19 01:04:31;;;;;;;1115.65;999.90;;;;;;;19.77;42.08;101772.28;681457;28;115118;-68
2022/05/19 01:04:55;;;;;;;1120.57;999.90;;;;;;;19.79;42.33;101775.63;681622;28;136457;-68
2022/05/19 01:05:19;;;;;;;1108.07;999.90;;;;;;;19.77;42.69;101764.88;682728;28;92162;-68
2022/05/19 01:05:43;;;;;;;1105.07;999.90;;;;;;;19.78;42.43;101769.31;683175;28;92282;-68
2022/05/19 01:06:09;;;;;;;1111.30;999.90;;;;;;;19.78;42.36;101774.78;682826;28;93175;-68
2022/05/19 01:06:32;;;;;;;1116.22;999.90;;;;;;;19.78;42.22;101779.41;679944;28;137972;-68
2022/05/19 01:06:56;;;;;;;1109.15;999.90;;;;;;;19.77;42.24;101775.84;683899;28;69444;-68
2022/05/19 01:07:19;;;;;;;1107.65;999.90;;;;;;;19.77;42.13;101780.50;682411;28;92170;-68
2022/05/19 01:07:47;;;;;;;1102.70;999.90;;;;;;;19.78;42.00;101773.94;683523;28;70274;-68
2022/05/19 01:08:12;;;;;;;1095.68;999.90;;;;;;;19.74;42.26;101773.50;680542;28;137536;-67
2022/05/19 01:08:37;;;;;;;1098.85;999.90;;;;;;;19.77;42.15;101777.75;684159;28;113383;-68
2022/05/19 01:09:02;;;;;;;1099.63;999.90;;;;;;;19.75;42.08;101777.09;686772;28;60342;-68
2022/05/19 01:09:25;;;;;;;1096.40;999.90;;;;;;;19.75;42.33;101772.44;682437;28;89895;-68
2022/05/19 01:09:46;;;;;;;1094.93;999.90;;;;;;;19.77;42.67;101769.53;682567;28;68136;-68
2022/05/19 01:10:08;;;;;;;1093.55;999.90;;;;;;;19.77;42.24;101775.84;684874;28;24361;-68
2022/05/19 01:10:29;;;;;;;1100.60;999.90;;;;;;;19.78;42.39;101773.94;683912;28;46664;-67
2022/05/19 01:10:52;;;;;;;1102.75;999.90;;;;;;;19.78;42.55;101766.56;682566;28;22173;-68
2022/05/19 01:11:15;;;;;;;1104.00;999.90;;;;;;;19.75;42.52;101772.44;681316;28;69435;-68
2022/05/19 01:11:36;;;;;;;1106.95;999.90;;;;;;;19.75;42.39;101772.44;683247;28;67425;-68
2022/05/19 01:11:57;;;;;;;1119.35;999.90;;;;;;;19.75;42.26;101772.44;685393;28;22404;-68
2022/05/19 01:12:21;;;;;;;1126.82;999.90;;;;;;;19.74;42.36;101772.66;682482;28;22386;-67
2022/05/19 01:12:46;;;;;;;1127.22;999.90;;;;;;;19.76;42.36;101771.41;681301;28;93172;-68
2022/05/19 01:13:08;;;;;;;1124.57;999.90;;;;;;;19.77;42.33;101773.09;680868;28;115364;-67
2022/05/19 01:13:31;;;;;;;1125.70;999.90;;;;;;;19.78;42.47;101762.97;683976;28;44202;-67
2022/05/19 01:13:53;;;;;;;1123.93;999.90;;;;;;;19.79;42.40;101779.19;684275;28;45069;-67
2022/05/19 01:14:15;;;;;;;1122.25;999.90;;;;;;;19.78;42.40;101768.44;683579;28;67459;-68
2022/05/19 01:14:37;;;;;;;1119.43;999.90;;;;;;;19.74;42.51;101759.78;684082;28;46162;-68
2022/05/19 01:14:59;;;;;;;1123.63;999.90;;;;;;;19.77;42.35;101775.84;684833;28;22489;-67
2022/05/19 01:15:22;;;;;;;1126.10;999.90;;;;;;;19.76;42.55;101763.19;683492;28;69231;-68
2022/05/19 01:15:44;;;;;;;1123.10;999.90;;;;;;;19.75;42.47;101764.22;684783;28;45411;-68
2022/05/19 01:16:06;;;;;;;1121.82;999.90;;;;;;;19.72;42.60;101767.38;683579;28;69251;-67
2022/05/19 01:16:27;;;;;;;1125.28;999.90;;;;;;;19.75;42.49;101769.72;683835;28;44153;-67
2022/05/19 01:16:50;;;;;;;1126.40;999.90;;;;;;;19.75;42.42;101764.22;685061;28;21559;-68
2022/05/19 01:17:11;;;;;;;1124.70;999.90;;;;;;;19.73;42.65;101766.34;684279;28;45266;-69
2022/05/19 01:17:32;;;;;;;1125.20;999.90;;;;;;;19.73;42.53;101771.84;685201;28;21522;-68
2022/05/19 01:17:54;;;;;;;1122.93;999.90;;;;;;;19.73;42.48;101765.47;684611;28;44370;-67
2022/05/19 01:18:16;;;;;;;1121.38;999.90;;;;;;;19.74;42.55;101767.19;684927;28;23541;-68
2022/05/19 01:18:38;;;;;;;1117.78;999.90;;;;;;;19.71;42.48;101771.19;684856;28;44351;-68
2022/05/19 01:18:59;;;;;;;1111.53;999.90;;;;;;;19.70;42.67;101771.38;684378;28;44998;-68
2022/05/19 01:19:26;;;;;;;1111.18;999.90;;;;;;;19.71;42.66;101773.09;684426;28;44379;-67
2022/05/19 01:19:57;;;;;;;1114.65;999.90;;;;;;;19.69;42.67;101761.50;680486;28;138294;-68
2022/05/19 01:20:22;;;;;;;1106.00;999.90;;;;;;;19.70;42.70;101765.91;681402;28;137578;-68
2022/05/19 01:20:44;;;;;;;1107.35;999.90;;;;;;;19.69;43.20;101773.28;683076;28;91756;-68
2022/05/19 01:21:07;;;;;;;1112.75;999.90;;;;;;;19.68;42.79;101768.03;684203;28;45248;-68
2022/05/19 01:21:31;;;;;;;1115.40;999.90;;;;;;;19.67;42.95;101763.59;682426;28;93125;-68
2022/05/19 01:21:55;;;;;;;1108.65;999.90;;;;;;;19.66;43.00;101773.72;682873;28;91865;-67
2022/05/19 01:22:21;;;;;;;1104.72;999.90;;;;;;;19.61;43.00;101759.81;682301;28;114276;-68
2022/05/19 01:22:50;;;;;;;1108.18;999.90;;;;;;;19.64;43.03;101770.38;681446;28;137748;-68
2022/05/19 01:23:18;;;;;;;1103.55;999.90;;;;;;;19.58;43.14;101757.50;680595;28;138021;-68
2022/05/19 01:23:48;;;;;;;1101.75;999.90;;;;;;;19.60;43.23;101760.88;681433;28;137722;-68
2022/05/19 01:24:16;;;;;;;1092.90;999.90;;;;;;;19.59;42.99;101759.16;681333;28;137774;-68
2022/05/19 01:24:43;;;;;;;1094.32;999.90;;;;;;;19.58;42.70;101763.81;681344;28;136321;-68
2022/05/19 01:25:08;;;;;;;1097.65;999.90;;;;;;;19.56;42.58;101762.34;680998;28;136469;-68
2022/05/19 01:25:37;;;;;;;1102.88;999.90;;;;;;;19.55;42.67;101764.25;682318;28;115372;-68
2022/05/19 01:26:03;;;;;;;1121.32;999.90;;;;;;;19.56;42.75;101768.69;681683;28;136488;-68
2022/05/19 01:26:41;;;;;;;1135.50;999.90;;;;;;;19.55;42.83;101764.25;681305;28;137945;-68
2022/05/19 01:27:03;;;;;;;1127.97;999.90;;;;;;;19.55;42.77;101771.63;679789;28;157436;-67
2022/05/19 01:27:24;;;;;;;1128.32;999.90;;;;;;;19.54;42.93;101767.19;684525;28;44042;-68
2022/05/19 01:27:46;;;;;;;1125.97;999.90;;;;;;;19.51;42.80;101768.44;685585;28;23477;-68
2022/05/19 01:28:07;;;;;;;1130.70;999.90;;;;;;;19.50;42.94;101769.53;684854;28;46340;-68
2022/05/19 01:28:29;;;;;;;1142.40;999.90;;;;;;;19.50;42.77;101766.78;684682;28;23480;-68
2022/05/19 01:28:51;;;;;;;1131.57;999.90;;;;;;;19.48;42.75;101763.38;684263;28;46386;-68
2022/05/19 01:29:15;;;;;;;1130.95;999.90;;;;;;;19.47;42.73;101766.34;684298;28;44361;-68
2022/05/19 01:29:40;;;;;;;1135.47;999.90;;;;;;;19.47;42.92;101764.47;680028;28;137591;-67
2022/05/19 01:30:01;;;;;;;1130.90;999.90;;;;;;;19.48;42.90;101768.03;685511;28;15038;-68
2022/05/19 01:30:22;;;;;;;1123.38;999.90;;;;;;;19.51;42.85;101767.63;685157;28;22394;-68
2022/05/19 01:30:44;;;;;;;1119.60;999.90;;;;;;;19.50;43.14;101764.03;685290;28;22408;-67
2022/05/19 01:31:06;;;;;;;1122.53;999.90;;;;;;;19.48;43.14;101765.31;684103;28;45215;-67
2022/05/19 01:31:29;;;;;;;1112.40;999.90;;;;;;;19.50;43.40;101772.25;683331;28;43265;-68
2022/05/19 01:31:53;;;;;;;1110.25;999.90;;;;;;;19.50;43.48;101766.78;683140;28;69423;-69
2022/05/19 01:32:22;;;;;;;1110.68;999.90;;;;;;;19.49;43.63;101777.94;683813;28;69992;-68
2022/05/19 01:32:44;;;;;;;1118.50;999.90;;;;;;;19.47;43.61;101769.09;681109;28;138074;-68
2022/05/19 01:33:06;;;;;;;1112.28;999.90;;;;;;;19.46;43.62;101771.00;683885;28;44398;-68
2022/05/19 01:33:27;;;;;;;1113.85;999.90;;;;;;;19.45;43.75;101770.16;684625;28;22415;-68
2022/05/19 01:33:48;;;;;;;1107.70;999.90;;;;;;;19.44;43.73;101757.50;685085;28;22392;-68
2022/05/19 01:34:09;;;;;;;1109.00;999.90;;;;;;;19.44;43.64;101768.47;685607;28;21406;-68
2022/05/19 01:34:34;;;;;;;1117.80;999.90;;;;;;;19.41;43.75;101763.41;684569;28;46329;-67
2022/05/19 01:34:55;;;;;;;1121.15;999.90;;;;;;;19.40;43.66;101761.75;682395;28;90192;-68
2022/05/19 01:35:16;;;;;;;1114.97;999.90;;;;;;;19.40;43.24;101761.75;684189;28;44352;-68
2022/05/19 01:35:38;;;;;;;1121.63;999.90;;;;;;;19.38;43.32;101760.25;685414;28;23464;-68
2022/05/19 01:36:00;;;;;;;1118.35;999.90;;;;;;;19.36;43.44;101762.38;685662;28;23470;-68
2022/05/19 01:36:21;;;;;;;1114.60;999.90;;;;;;;19.35;43.51;101764.25;683982;28;47428;-68
2022/05/19 01:36:42;;;;;;;1110.57;999.90;;;;;;;19.36;43.37;101762.38;683435;28;46368;-67
2022/05/19 01:37:08;;;;;;;1111.82;999.90;;;;;;;19.34;43.77;101762.59;682197;28;113535;-68
2022/05/19 01:37:36;;;;;;;1114.70;999.90;;;;;;;19.36;43.54;101771.41;680145;28;137804;-68
2022/05/19 01:38:22;;;;;;;1122.50;999.90;;;;;;;19.35;43.68;101766.16;678950;28;135201;-67
2022/05/19 01:39:00;;;;;;;1115.18;999.90;;;;;;;19.30;43.66;101760.47;681016;28;137877;-68
2022/05/19 01:39:29;;;;;;;1124.68;999.90;;;;;;;19.32;43.86;101766.56;681836;28;137385;-68
2022/05/19 01:40:04;;;;;;;1115.50;999.90;;;;;;;19.29;43.72;101764.25;685237;28;69428;-67
2022/05/19 01:40:35;;;;;;;1119.20;999.90;;;;;;;19.27;43.46;101767.19;683610;28;137412;-68
2022/05/19 01:41:07;;;;;;;1122.57;999.90;;;;;;;19.27;43.65;101767.19;681476;28;138185;-68
2022/05/19 01:41:44;;;;;;;1114.18;999.90;;;;;;;19.24;43.53;101764.88;679668;28;159175;-68
2022/05/19 01:42:17;;;;;;;1113.85;999.90;;;;;;;19.24;43.72;101762.16;680297;28;158935;-68
2022/05/19 01:42:43;;;;;;;1098.65;999.90;;;;;;;19.24;43.76;101768.44;681338;28;138179;-67
2022/05/19 01:43:12;;;;;;;1106.70;999.90;;;;;;;19.22;43.62;101767.00;680424;28;159478;-68
2022/05/19 01:43:41;;;;;;;1119.75;999.90;;;;;;;19.24;43.45;101768.44;680451;28;160616;-68
2022/05/19 01:44:13;;;;;;;1110.43;999.90;;;;;;;19.23;43.35;101760.44;680907;28;137370;-67
2022/05/19 01:44:44;;;;;;;1119.07;999.90;;;;;;;19.23;43.41;101763.19;681033;28;137846;-68
2022/05/19 01:45:14;;;;;;;1128.18;999.90;;;;;;;19.24;43.25;101759.41;680758;28;137681;-67
2022/05/19 01:45:44;;;;;;;1114.03;999.90;;;;;;;19.25;43.44;101764.66;682222;28;137778;-68